Time;durP1;ratioP1;P1;durP2;ratioP2;P2;SDS_P1;SDS_P2;PMS_P1;PMS_P2;Temp;Humidity;BMP_temperature;BMP_pressure;BME280_temperature;BME280_humidity;BME280_pressure;Samples;Min_cycle;Max_cycle;Signal;HPM_P1;HPM_P2
2022/05/06 00:00:11;;;;;;;;;14.50;14.00;;;;;14.53;58.17;101973.91;5072533;28;45168;-77
2022/05/06 00:02:37;;;;;;;;;14.75;14.00;;;;;14.50;58.25;101973.81;5073126;28;45185;-77
2022/05/06 00:05:03;;;;;;;;;17.25;15.25;;;;;14.49;58.46;101972.91;5091347;27;45203;-77
2022/05/06 00:07:29;;;;;;;;;17.00;15.25;;;;;14.36;58.40;101950.34;5091124;27;46241;-83
2022/05/06 00:09:54;;;;;;;;;15.75;15.75;;;;;14.34;58.69;101962.63;5091558;28;45241;-77
2022/05/06 00:12:19;;;;;;;;;18.33;14.00;;;;;14.43;58.84;101980.56;5091302;27;45058;-77
2022/05/06 00:14:46;;;;;;;;;15.50;14.75;;;;;14.43;58.72;101975.28;5091077;27;45134;-80
2022/05/06 00:17:12;;;;;;;;;17.50;15.75;;;;;14.22;58.81;101940.97;5089293;27;45649;-84
2022/05/06 00:19:38;;;;;;;;;16.50;15.75;;;;;14.38;59.01;101975.13;5072334;27;45458;-77
2022/05/06 00:22:03;;;;;;;;;18.75;16.75;;;;;14.23;58.87;101953.34;5070873;28;45055;-77
2022/05/06 00:24:29;;;;;;;;;17.00;15.75;;;;;14.32;59.09;101980.16;5073991;28;45143;-80
2022/05/06 00:26:55;;;;;;;;;16.25;15.75;;;;;14.29;59.21;101972.13;5091743;28;45873;-78
2022/05/06 00:29:21;;;;;;;;;18.25;15.25;;;;;14.29;59.37;101971.22;5091008;27;45625;-84
2022/05/06 00:31:46;;;;;;;;;22.00;19.33;;;;;14.18;59.25;101954.91;5090325;28;56920;-78
2022/05/06 00:34:11;;;;;;;;;18.00;17.25;;;;;14.25;59.52;101970.19;5088208;27;44988;-79
2022/05/06 00:36:37;;;;;;;;;19.25;18.25;;;;;14.12;59.60;101947.63;5090327;27;45490;-78
2022/05/06 00:39:03;;;;;;;;;19.50;18.75;;;;;14.21;59.62;101976.19;5077973;27;45182;-78
2022/05/06 00:41:32;;;;;;;;;22.00;20.75;;;;;14.10;59.63;101956.38;5103072;27;45213;-77
2022/05/06 00:43:57;;;;;;;;;23.50;22.00;;;;;14.06;59.81;101954.44;5084284;28;45071;-77
2022/05/06 00:46:23;;;;;;;;;16.67;16.67;;;;;14.17;59.97;101982.19;5088071;28;58002;-81
2022/05/06 00:48:49;;;;;;;;;22.75;19.75;;;;;14.12;59.97;101967.91;5091403;28;45019;-78
2022/05/06 00:51:17;;;;;;;;;21.00;20.00;;;;;14.06;60.23;101962.38;5090311;27;45408;-81
2022/05/06 00:53:43;;;;;;;;;19.00;15.00;;;;;14.15;60.11;101979.50;5088621;27;45088;-78
2022/05/06 00:56:10;;;;;;;;;19.25;18.75;;;;;14.04;60.05;101964.03;5090191;27;46247;-79
2022/05/06 00:58:35;;;;;;;;;19.25;19.25;;;;;14.10;60.22;101977.53;5079052;27;45263;-83
2022/05/06 01:01:03;;;;;;;;;17.50;16.50;;;;;14.11;60.25;101969.63;5068812;28;45160;-77
2022/05/06 01:03:28;;;;;;;;;18.00;16.75;;;;;13.99;60.33;101948.03;5070732;28;45228;-84
2022/05/06 01:05:54;;;;;;;;;19.33;19.00;;;;;14.05;60.38;101955.28;5071496;28;45509;-77
2022/05/06 01:08:20;;;;;;;;;19.50;19.25;;;;;14.10;60.46;101965.19;5070571;28;45084;-77
2022/05/06 01:10:46;;;;;;;;;20.75;19.00;;;;;14.04;60.56;101956.09;5070290;28;45067;-82
2022/05/06 01:13:11;;;;;;;;;20.00;18.75;;;;;14.02;60.51;101950.75;5070139;28;45043;-83
2022/05/06 01:15:38;;;;;;;;;19.50;19.00;;;;;14.11;60.47;101961.72;5069862;28;45066;-77
2022/05/06 01:18:04;;;;;;;;;20.50;19.25;;;;;13.90;60.69;101930.03;5076767;28;45628;-82
2022/05/06 01:20:37;;;;;;;;;18.75;17.50;;;;;14.11;60.88;101948.50;5090086;27;45000;-82
2022/05/06 01:23:04;;;;;;;;;22.00;20.00;;;;;14.12;60.85;101960.84;5090687;28;45015;-78
2022/05/06 01:25:29;;;;;;;;;22.75;20.50;;;;;14.01;60.84;101946.31;5089064;27;46257;-81
2022/05/06 01:28:01;;;;;;;;;22.75;20.50;;;;;14.19;60.87;101962.03;5089765;27;45178;-82
2022/05/06 01:30:36;;;;;;;;;24.75;23.50;;;;;14.07;60.86;101937.72;5082051;27;44916;-77
2022/05/06 01:33:04;;;;;;;;;19.75;19.75;;;;;14.25;60.91;101962.25;5089138;28;45275;-84
2022/05/06 01:35:31;;;;;;;;;23.00;23.00;;;;;14.19;60.76;101946.16;5088916;27;46094;-84
2022/05/06 01:38:00;;;;;;;;;22.50;21.50;;;;;14.31;60.54;101964.22;5090039;28;45584;-79
2022/05/06 01:40:28;;;;;;;;;21.25;21.25;;;;;14.32;60.80;101972.22;5088178;27;44952;-81
2022/05/06 01:42:57;;;;;;;;;21.25;20.75;;;;;14.34;60.72;101967.91;5090024;27;45063;-83
2022/05/06 01:45:24;;;;;;;;;20.25;19.75;;;;;14.36;60.46;101955.63;5089578;27;45904;-82
2022/05/06 01:47:54;;;;;;;;;22.25;21.25;;;;;14.42;60.45;101960.25;5089385;27;45374;-82
2022/05/06 01:50:20;;;;;;;;;21.25;20.75;;;;;14.43;60.44;101960.34;5089276;27;45417;-81
2022/05/06 01:52:50;;;;;;;;;22.00;21.25;;;;;14.46;60.36;101959.53;5071422;27;45213;-83
2022/05/06 01:55:15;;;;;;;;;22.00;20.75;;;;;14.49;60.48;101962.34;5067815;28;45515;-83
2022/05/06 01:57:41;;;;;;;;;24.75;23.75;;;;;14.41;60.44;101951.41;5068558;28;45218;-81
2022/05/06 02:00:07;;;;;;;;;26.25;25.25;;;;;14.45;60.39;101966.56;5084794;28;45132;-77
2022/05/06 02:02:33;;;;;;;;;23.00;21.75;;;;;14.28;60.43;101946.50;5089686;28;45439;-83
2022/05/06 02:05:17;;;;;;;;;24.50;23.50;;;;;14.33;60.57;101968.72;5088095;27;45574;-79
2022/05/06 02:07:42;;;;;;;;;23.75;23.00;;;;;14.07;60.83;101943.00;5089917;27;45434;-77
2022/05/06 02:10:08;;;;;;;;;22.00;21.25;;;;;14.20;60.94;101974.41;5085295;28;45224;-84
2022/05/06 02:12:33;;;;;;;;;23.75;22.50;;;;;14.18;60.99;101981.34;5083244;28;45257;-77
2022/05/06 02:14:59;;;;;;;;;21.67;21.33;;;;;14.15;60.95;101981.25;5089772;27;45913;-78
2022/05/06 02:17:25;;;;;;;;;25.25;23.00;;;;;14.11;61.05;101969.63;5086815;27;45789;-84
2022/05/06 02:19:50;;;;;;;;;22.25;20.75;;;;;14.07;61.33;101965.06;5068924;28;45000;-77
2022/05/06 02:22:15;;;;;;;;;23.50;22.00;;;;;13.88;61.24;101944.03;5067940;28;45122;-84
2022/05/06 02:24:42;;;;;;;;;26.00;24.75;;;;;14.02;61.64;101963.09;5073896;28;45030;-79
2022/05/06 02:27:07;;;;;;;;;25.50;23.00;;;;;13.90;61.39;101958.22;5088470;28;45408;-78
2022/05/06 02:29:33;;;;;;;;;25.75;25.00;;;;;13.96;61.58;101976.06;5084675;27;45705;-81
2022/05/06 02:34:42;;;;;;;;;24.25;22.25;;;;;13.89;61.70;101970.53;5068086;28;45082;-77
2022/05/06 02:37:08;;;;;;;;;24.50;22.50;;;;;13.89;61.90;101974.88;5068896;28;44977;-77
2022/05/06 02:39:33;;;;;;;;;26.50;24.00;;;;;13.77;61.88;101950.63;5068723;28;45133;-84
2022/05/06 02:41:59;;;;;;;;;24.50;22.25;;;;;13.83;61.87;101964.97;5069339;28;45145;-83
2022/05/06 02:44:25;;;;;;;;;26.00;24.50;;;;;13.84;62.10;101971.16;5088675;27;45522;-76
2022/05/06 02:46:50;;;;;;;;;22.75;21.50;;;;;13.81;62.23;101968.41;5068426;27;45165;-77
2022/05/06 02:49:16;;;;;;;;;23.00;21.50;;;;;13.59;62.31;101946.38;5068948;28;45032;-78
2022/05/06 02:51:41;;;;;;;;;24.25;21.50;;;;;13.68;62.67;101956.41;5067994;28;45064;-80
2022/05/06 02:54:07;;;;;;;;;27.25;25.00;;;;;13.50;62.49;101932.81;5101127;27;46720;-77
2022/05/06 02:56:33;;;;;;;;;27.00;24.75;;;;;13.39;62.66;101921.75;5068251;28;45246;-79
2022/05/06 02:58:58;;;;;;;;;23.00;22.00;;;;;13.57;62.77;101963.91;5075513;28;45019;-79
2022/05/06 03:01:24;;;;;;;;;23.67;22.33;;;;;13.43;63.12;101949.22;5092275;27;45165;-79
2022/05/06 03:03:51;;;;;;;;;25.00;24.00;;;;;13.36;62.83;101948.06;5088607;27;45138;-82
2022/05/06 03:06:17;;;;;;;;;31.25;28.25;;;;;13.54;63.17;101970.78;5073323;27;45146;-81
2022/05/06 03:08:43;;;;;;;;;25.25;24.50;;;;;13.48;62.85;101974.06;5068980;28;45113;-83
2022/05/06 03:11:09;;;;;;;;;28.25;25.50;;;;;13.42;63.24;101974.72;5068171;28;45098;-80
2022/05/06 03:13:34;;;;;;;;;25.00;24.50;;;;;13.30;63.21;101962.72;5068027;28;46372;-77
2022/05/06 03:15:59;;;;;;;;;27.00;24.00;;;;;13.18;63.26;101948.13;5068260;28;45046;-79
2022/05/06 03:18:26;;;;;;;;;28.33;25.00;;;;;13.25;63.60;101970.47;5068121;28;45139;-77
2022/05/06 03:20:51;;;;;;;;;25.50;22.50;;;;;13.21;63.80;101973.78;5067995;28;45127;-84
2022/05/06 03:23:17;;;;;;;;;23.75;21.50;;;;;13.20;63.73;101976.31;5068618;28;45076;-82
2022/05/06 03:25:42;;;;;;;;;26.25;24.00;;;;;13.04;63.78;101949.25;5081074;28;45083;-79
2022/05/06 03:28:08;;;;;;;;;28.00;24.00;;;;;13.05;63.83;101958.09;5089179;27;45190;-80
2022/05/06 03:30:39;;;;;;;;;31.00;28.00;;;;;13.02;63.88;101952.69;5094001;27;45174;-84
2022/05/06 03:33:08;;;;;;;;;33.00;29.25;;;;;13.10;64.15;101975.03;5067731;28;45641;-84
2022/05/06 03:35:35;;;;;;;;;27.50;26.25;;;;;12.92;64.27;101943.47;5067396;28;45522;-80
2022/05/06 03:38:00;;;;;;;;;26.25;25.00;;;;;13.15;64.21;101979.69;5069047;28;45150;-79
2022/05/06 03:40:25;;;;;;;;;30.00;26.00;;;;;13.05;64.06;101963.38;5066518;28;45210;-78
2022/05/06 03:42:51;;;;;;;;;28.00;27.25;;;;;13.04;64.23;101965.09;5068038;28;44973;-83
2022/05/06 03:45:16;;;;;;;;;27.25;26.00;;;;;13.08;64.22;101964.41;5074571;28;45087;-78
2022/05/06 03:47:42;;;;;;;;;25.00;25.00;;;;;13.17;64.32;101982.41;5087373;27;45286;-77
2022/05/06 03:52:52;;;;;;;;;27.75;27.00;;;;;13.04;64.18;101959.81;5087768;28;45764;-81
2022/05/06 03:55:18;;;;;;;;;30.25;28.00;;;;;13.19;64.08;101983.34;5078312;27;45205;-82
2022/05/06 03:57:44;;;;;;;;;32.75;28.25;;;;;13.20;64.10;101978.97;5082949;28;45228;-83
2022/05/06 04:00:14;;;;;;;;;29.50;25.75;;;;;13.16;64.21;101986.78;5067741;28;45069;-79
2022/05/06 04:02:40;;;;;;;;;31.00;28.25;;;;;12.90;64.10;101940.72;5066685;28;45834;-84
2022/05/06 04:05:06;;;;;;;;;31.75;29.25;;;;;13.02;63.78;101965.88;5073580;28;45161;-82
2022/05/06 04:07:32;;;;;;;;;28.75;26.25;;;;;13.02;64.21;101976.44;5088074;27;45169;-77
2022/05/06 04:09:57;;;;;;;;;32.50;29.50;;;;;12.99;64.35;101977.19;5088106;27;45149;-80
2022/05/06 04:12:23;;;;;;;;;24.00;22.75;;;;;13.10;64.17;101997.06;5087588;28;45945;-82
2022/05/06 04:14:52;;;;;;;;;31.75;28.75;;;;;13.05;64.44;102001.25;5087927;27;45127;-80
2022/05/06 04:17:17;;;;;;;;;25.00;23.25;;;;;13.04;64.58;101998.50;5085794;27;45279;-80
2022/05/06 04:23:28;;;;;;;;;28.75;27.25;;;;;12.81;64.54;101961.47;5089669;27;45176;-83
2022/05/06 04:25:14;;;;;;;;;34.00;29.75;;;;;12.85;64.54;101973.94;5090457;27;45625;-80
2022/05/06 04:27:40;;;;;;;;;30.00;27.75;;;;;12.91;64.55;102005.91;5090154;27;45057;-84
2022/05/06 04:30:06;;;;;;;;;34.50;31.25;;;;;12.78;64.98;101984.16;5092180;27;45327;-79
2022/05/06 04:32:31;;;;;;;;;31.25;29.50;;;;;12.73;64.86;101968.13;5106856;27;45210;-78
2022/05/06 04:34:57;;;;;;;;;32.75;31.00;;;;;12.87;65.13;102000.41;5090700;27;45320;-80
2022/05/06 04:37:22;;;;;;;;;33.00;29.50;;;;;12.84;65.05;101993.25;5100385;27;45424;-78
2022/05/06 04:39:47;;;;;;;;;30.50;26.50;;;;;12.87;64.78;101998.66;5096615;27;45253;-79
2022/05/06 04:42:13;;;;;;;;;30.00;28.33;;;;;12.85;65.01;102002.97;5067279;28;56604;-79
2022/05/06 04:44:38;;;;;;;;;33.00;32.00;;;;;12.96;65.03;102005.22;5068803;28;45387;-82
2022/05/06 04:47:03;;;;;;;;;32.00;28.67;;;;;13.01;65.02;102014.22;5079443;28;44970;-87
2022/05/06 04:49:29;;;;;;;;;33.50;28.75;;;;;12.99;64.90;102018.53;5068006;28;45749;-83
2022/05/06 04:51:54;;;;;;;;;35.33;29.00;;;;;13.01;64.98;102019.50;5068809;28;45147;-85
2022/05/06 04:54:19;;;;;;;;;33.67;30.33;;;;;13.01;64.83;102027.44;5067739;28;47937;-80
2022/05/06 04:56:45;;;;;;;;;37.00;32.33;;;;;12.85;64.78;101994.13;5069725;28;44933;-82
2022/05/06 04:59:11;;;;;;;;;30.33;25.67;;;;;12.89;65.11;102002.25;5068738;28;45422;-82
2022/05/06 05:01:36;;;;;;;;;31.00;28.50;;;;;12.95;64.96;102008.66;5070382;28;45563;-83
2022/05/06 05:04:01;;;;;;;;;31.00;27.00;;;;;12.98;64.92;102016.72;5071183;28;44968;-82
2022/05/06 05:06:27;;;;;;;;;32.75;31.25;;;;;13.03;64.79;102015.19;5071112;27;44820;-84
2022/05/06 05:08:52;;;;;;;;;28.33;27.33;;;;;13.09;64.83;102028.66;5070471;28;45124;-79
2022/05/06 05:11:17;;;;;;;;;33.00;30.33;;;;;13.06;64.79;102023.25;5085367;27;45815;-79
2022/05/06 05:13:43;;;;;;;;;30.33;28.00;;;;;13.14;64.99;102037.69;5070777;27;44964;-87
2022/05/06 05:16:08;;;;;;;;;26.00;25.00;;;;;12.97;64.94;101999.09;5069528;28;45279;-83
2022/05/06 05:18:34;;;;;;;;;30.75;28.75;;;;;13.17;64.96;102032.56;5070075;28;45114;-78
2022/05/06 05:21:00;;;;;;;;;30.25;29.00;;;;;13.18;64.88;102031.72;5069727;28;45223;-84
2022/05/06 05:23:26;;;;;;;;;31.50;30.75;;;;;13.20;65.04;102034.41;5094775;27;45673;-85
2022/05/06 05:25:51;;;;;;;;;32.33;29.67;;;;;13.22;65.03;102033.69;5096020;27;45454;-82
2022/05/06 05:28:16;;;;;;;;;32.50;29.25;;;;;13.08;64.84;102005.75;5079073;28;45032;-79
2022/05/06 05:30:42;;;;;;;;;37.50;32.00;;;;;13.05;65.03;102003.88;5086610;27;45290;-79
2022/05/06 05:33:09;;;;;;;;;34.25;32.00;;;;;13.09;65.09;101999.63;5094720;27;45076;-79
2022/05/06 05:35:35;;;;;;;;;34.00;31.25;;;;;13.30;65.56;102037.59;5090232;27;45099;-78
2022/05/06 05:38:01;;;;;;;;;32.50;29.75;;;;;13.37;65.25;102044.03;5081298;27;45834;-79
2022/05/06 05:40:26;;;;;;;;;31.00;29.67;;;;;13.26;65.23;102022.44;5082498;27;46210;-87
2022/05/06 05:42:51;;;;;;;;;38.33;32.00;;;;;13.41;65.07;102043.34;5090099;27;45275;-84
2022/05/06 05:48:33;;;;;;;;;35.50;32.00;;;;;13.33;64.96;102023.59;5089606;28;45177;-81
2022/05/06 05:50:52;;;;;;;;;36.00;31.25;;;;;13.51;64.98;102047.28;5088939;27;46353;-80
2022/05/06 05:53:18;;;;;;;;;30.50;28.25;;;;;13.55;64.99;102044.84;5089724;27;45171;-84
2022/05/06 05:55:44;;;;;;;;;37.00;32.25;;;;;13.49;65.28;102033.09;5089529;27;44858;-77
2022/05/06 05:58:09;;;;;;;;;37.75;34.00;;;;;13.45;65.12;102010.94;5090166;27;45151;-78
2022/05/06 06:00:36;;;;;;;;;32.33;26.00;;;;;13.63;64.77;102048.69;5089721;27;47570;-78
2022/05/06 06:03:01;;;;;;;;;29.50;28.75;;;;;13.48;64.85;102008.41;5089732;27;45219;-84
2022/05/06 06:05:26;;;;;;;;;32.50;31.25;;;;;13.60;65.00;102023.91;5089486;27;45029;-78
2022/05/06 06:07:52;;;;;;;;;33.50;31.00;;;;;13.47;64.95;101998.69;5089759;27;44980;-78
2022/05/06 06:10:17;;;;;;;;;34.00;32.00;;;;;13.75;64.73;102031.56;5089282;27;45116;-80
2022/05/06 06:12:42;;;;;;;;;33.75;31.50;;;;;13.49;65.07;101985.53;5089694;27;45114;-78
2022/05/06 06:15:08;;;;;;;;;34.50;31.50;;;;;13.80;64.87;102038.84;5089906;27;45023;-78
2022/05/06 06:17:33;;;;;;;;;37.50;32.50;;;;;13.74;64.55;102022.72;5088906;27;45066;-79
2022/05/06 06:19:59;;;;;;;;;38.75;34.00;;;;;13.74;64.88;102020.06;5089775;27;50633;-79
2022/05/06 06:22:24;;;;;;;;;36.50;33.00;;;;;13.86;64.60;102039.09;5088941;28;45126;-81
2022/05/06 06:24:50;;;;;;;;;37.75;31.75;;;;;13.66;64.64;102003.03;5086100;27;45144;-79
2022/05/06 06:27:15;;;;;;;;;35.50;31.75;;;;;13.90;64.61;102037.50;5087996;28;45035;-78
2022/05/06 06:29:41;;;;;;;;;38.25;33.75;;;;;13.98;64.50;102043.09;5089088;28;45833;-81
2022/05/06 06:32:07;;;;;;;;;38.25;33.00;;;;;13.88;64.51;102024.19;5088628;28;45107;-79
2022/05/06 06:34:32;;;;;;;;;39.50;34.25;;;;;13.98;64.59;102032.53;5089149;28;45033;-79
2022/05/06 06:36:58;;;;;;;;;43.75;34.25;;;;;14.08;64.10;102046.16;5089603;28;45298;-79
2022/05/06 06:39:23;;;;;;;;;34.50;32.00;;;;;14.12;64.02;102053.41;5088936;28;45445;-83
2022/05/06 06:41:49;;;;;;;;;35.50;33.00;;;;;14.16;64.29;102049.16;5087789;27;45035;-79
2022/05/06 06:44:14;;;;;;;;;44.50;36.50;;;;;14.12;64.26;102036.63;5089300;28;45047;-79
2022/05/06 06:46:39;;;;;;;;;34.00;32.00;;;;;14.02;64.32;102008.03;5088480;28;45482;-77
2022/05/06 06:49:05;;;;;;;;;44.50;35.50;;;;;14.29;64.04;102047.91;5088782;27;45477;-77
2022/05/06 06:51:31;;;;;;;;;37.25;34.75;;;;;14.25;64.33;102031.00;5089077;27;45096;-76
2022/05/06 06:53:57;;;;;;;;;34.75;32.00;;;;;14.32;63.91;102027.75;5089180;27;45659;-79
2022/05/06 06:56:22;;;;;;;;;33.25;31.00;;;;;14.40;63.68;102042.19;5088573;28;45020;-77
2022/05/06 06:58:48;;;;;;;;;39.00;34.00;;;;;14.36;63.89;102028.78;5089040;28;45504;-77
2022/05/06 07:01:13;;;;;;;;;33.50;31.50;;;;;14.50;63.84;102042.59;5088613;27;45156;-78
2022/05/06 07:03:39;;;;;;;;;39.00;34.00;;;;;14.54;63.68;102039.25;5088826;27;45083;-81
2022/05/06 07:14:16;;;;;;;;;34.00;31.50;;;;;14.69;63.40;102046.03;5088636;28;45222;-78
2022/05/06 07:16:42;;;;;;;;;35.50;32.50;;;;;14.74;63.38;102055.88;5088439;27;45198;-77
2022/05/06 07:19:07;;;;;;;;;38.50;32.50;;;;;14.63;63.25;102028.97;5088291;27;45245;-81
2022/05/06 07:21:33;;;;;;;;;32.25;29.25;;;;;14.68;63.06;102038.03;5088354;27;45149;-77
2022/05/06 07:23:58;;;;;;;;;37.00;33.00;;;;;14.87;63.03;102055.50;5088755;27;45233;-78
2022/05/06 07:26:24;;;;;;;;;32.75;30.00;;;;;14.76;62.88;102025.97;5087846;27;45247;-78
2022/05/06 07:28:50;;;;;;;;;33.75;31.00;;;;;14.87;62.57;102053.75;5088710;27;45551;-77
2022/05/06 07:31:15;;;;;;;;;32.00;29.00;;;;;14.82;63.21;102034.13;5087358;27;47675;-78
2022/05/06 07:33:40;;;;;;;;;33.00;29.50;;;;;14.82;62.44;102025.28;5088794;27;45076;-80
2022/05/06 07:36:06;;;;;;;;;35.75;30.00;;;;;15.00;62.46;102055.13;5088903;27;44977;-78
2022/05/06 07:38:32;;;;;;;;;38.25;33.50;;;;;14.98;62.33;102059.47;5087761;27;46216;-77
2022/05/06 07:40:59;;;;;;;;;34.50;31.00;;;;;15.07;62.46;102066.84;5088326;27;45396;-81
2022/05/06 07:43:25;;;;;;;;;34.25;29.00;;;;;15.07;62.51;102057.13;5088313;27;45158;-78
2022/05/06 07:45:50;;;;;;;;;32.50;30.75;;;;;15.15;62.69;102060.97;5087980;28;45169;-78
2022/05/06 07:48:18;;;;;;;;;31.75;30.75;;;;;15.23;62.35;102074.53;5088196;27;45441;-78
2022/05/06 07:50:46;;;;;;;;;32.75;30.75;;;;;15.14;62.04;102039.75;5087488;27;45438;-78
2022/05/06 07:53:13;;;;;;;;;37.50;31.50;;;;;15.23;61.72;102054.22;5090208;27;44957;-77
2022/05/06 07:55:38;;;;;;;;;31.25;30.75;;;;;15.09;61.88;102020.16;5090129;28;45269;-80
2022/05/06 07:58:07;;;;;;;;;34.75;31.00;;;;;15.34;62.13;102054.63;5092132;28;45923;-78
2022/05/06 08:00:32;;;;;;;;;28.00;27.00;;;;;15.36;61.80;102052.91;5091336;27;45563;-77
2022/05/06 08:05:45;;;;;;;;;30.50;28.75;;;;;15.51;61.51;102057.84;5091282;27;45044;-80
2022/05/06 08:08:10;;;;;;;;;31.75;27.75;;;;;15.55;61.47;102056.22;5091376;27;45087;-77
2022/05/06 08:10:35;;;;;;;;;30.67;28.00;;;;;15.52;61.44;102043.78;5091385;27;44917;-82
2022/05/06 08:13:01;;;;;;;;;30.00;26.75;;;;;15.60;61.25;102051.97;5091742;27;45076;-78
2022/05/06 08:15:27;;;;;;;;;31.75;29.00;;;;;15.60;61.25;102042.28;5091372;27;45187;-81
2022/05/06 08:17:53;;;;;;;;;25.50;24.75;;;;;15.62;60.71;102040.59;5091124;27;45237;-79
2022/05/06 08:20:18;;;;;;;;;29.00;25.50;;;;;15.76;61.00;102057.00;5091096;27;45048;-83
2022/05/06 08:22:44;;;;;;;;;30.50;29.50;;;;;15.69;60.72;102037.34;5090799;27;45214;-79
2022/05/06 08:25:09;;;;;;;;;28.75;26.75;;;;;15.70;61.01;102022.34;5091481;27;45464;-77
2022/05/06 08:27:39;;;;;;;;;25.50;23.75;;;;;15.80;60.52;102029.75;5091184;28;45430;-80
2022/05/06 08:30:06;;;;;;;;;30.00;27.25;;;;;15.93;60.66;102058.47;5091520;27;45598;-78
2022/05/06 08:32:31;;;;;;;;;27.00;24.75;;;;;15.98;60.49;102056.00;5090854;27;45138;-78
2022/05/06 08:34:56;;;;;;;;;25.75;24.00;;;;;16.03;60.12;102048.19;5090717;28;45244;-84
2022/05/06 08:37:23;;;;;;;;;26.25;22.75;;;;;16.04;59.65;102042.94;5091166;28;45121;-82
2022/05/06 08:39:48;;;;;;;;;20.25;18.75;;;;;16.00;59.81;102036.59;5091523;27;45636;-78
2022/05/06 08:42:21;;;;;;;;;26.00;23.67;;;;;16.14;59.81;102052.97;5091056;28;45172;-78
2022/05/06 08:53:05;;;;;;;;;28.00;22.50;;;;;16.30;59.12;102038.44;5070568;28;45022;-79
2022/05/06 08:55:31;;;;;;;;;24.00;22.00;;;;;16.32;58.82;102039.44;5070440;28;45139;-85
2022/05/06 08:57:57;;;;;;;;;22.50;21.00;;;;;16.43;58.76;102053.91;5070722;28;45136;-84
2022/05/06 09:00:24;;;;;;;;;24.00;20.00;;;;;16.42;59.10;102041.50;5070192;28;45861;-81
2022/05/06 09:02:50;;;;;;;;;23.00;19.75;;;;;16.50;58.68;102037.34;5070373;28;45194;-78
2022/05/06 09:05:20;;;;;;;;;23.25;22.50;;;;;16.38;57.98;102010.41;5068108;28;45081;-82
2022/05/06 09:07:55;;;;;;;;;25.25;22.00;;;;;16.62;57.38;102049.19;5070116;28;45431;-78
2022/05/06 09:10:21;;;;;;;;;25.00;23.25;;;;;16.64;58.01;102039.50;5070209;28;45669;-77
2022/05/06 09:12:46;;;;;;;;;20.75;20.25;;;;;16.58;57.86;102026.97;5070194;28;45199;-78
2022/05/06 09:18:03;;;;;;;;;23.50;21.50;;;;;16.73;57.66;102029.22;5070271;28;45166;-81
2022/05/06 09:20:29;;;;;;;;;23.50;23.00;;;;;16.79;57.39;102034.69;5069619;28;45589;-78
2022/05/06 09:22:55;;;;;;;;;24.75;23.25;;;;;16.77;57.53;102024.03;5070238;28;45409;-79
2022/05/06 09:25:42;;;;;;;;;23.00;21.50;;;;;16.89;57.13;102027.91;5080557;28;45012;-86
2022/05/06 09:28:21;;;;;;;;;22.50;22.00;;;;;16.97;56.64;102034.34;5088945;27;47399;-83
2022/05/06 09:30:59;;;;;;;;;25.00;24.25;;;;;17.02;57.13;102023.00;5090067;27;45380;-85
2022/05/06 09:33:25;;;;;;;;;22.50;19.75;;;;;17.00;57.18;102010.53;5088560;27;45130;-81
2022/05/06 09:35:51;;;;;;;;;24.00;22.75;;;;;17.17;57.10;102029.59;5089669;27;44943;-84
2022/05/06 09:38:16;;;;;;;;;24.50;22.75;;;;;17.21;56.96;102028.84;5090395;28;45610;-82
2022/05/06 09:40:41;;;;;;;;;22.75;22.00;;;;;17.24;56.58;102024.53;5090527;27;45126;-82
2022/05/06 09:43:19;;;;;;;;;28.67;26.00;;;;;17.28;56.32;102023.72;5089969;27;45184;-85
2022/05/06 09:45:46;;;;;;;;;20.00;19.50;;;;;17.34;56.32;102020.34;5089363;28;45417;-78
2022/05/06 09:48:12;;;;;;;;;22.75;22.25;;;;;17.36;56.21;102009.75;5105446;27;47303;-82
2022/05/06 09:50:42;;;;;;;;;22.50;21.00;;;;;17.47;55.94;102014.50;5088927;27;45175;-85
2022/05/06 09:53:12;;;;;;;;;22.00;22.00;;;;;17.55;55.83;102012.06;5088776;27;45088;-80
2022/05/06 09:55:40;;;;;;;;;26.50;24.25;;;;;17.60;56.25;102013.06;5090289;27;45131;-83
2022/05/06 09:58:06;;;;;;;;;23.00;21.00;;;;;17.67;55.71;102008.78;5089677;27;45636;-77
2022/05/06 10:00:36;;;;;;;;;23.75;23.50;;;;;17.69;56.03;101993.81;5090036;27;45090;-86
2022/05/06 10:03:02;;;;;;;;;20.00;20.00;;;;;17.90;55.19;102002.34;5090139;27;45125;-79
2022/05/06 10:05:28;;;;;;;;;20.25;19.25;;;;;17.89;54.24;101989.00;5089314;27;45173;-78
2022/05/06 10:08:01;;;;;;;;;20.50;19.50;;;;;18.14;54.66;102003.81;5090055;27;45303;-79
2022/05/06 10:10:30;;;;;;;;;18.75;18.50;;;;;18.27;54.45;102003.22;5089668;28;45620;-78
2022/05/06 10:13:01;;;;;;;;;18.50;18.25;;;;;18.33;54.06;102002.47;5089560;27;45072;-79
2022/05/06 10:15:28;;;;;;;;;16.25;15.50;;;;;18.31;53.83;101989.13;5090449;27;45120;-77
2022/05/06 10:17:55;;;;;;;;;19.00;18.50;;;;;18.38;53.79;102003.47;5090675;28;45614;-78
2022/05/06 10:20:41;;;;;;;;;17.25;16.00;;;;;18.43;53.28;102010.69;5089253;27;45729;-78
2022/05/06 10:23:08;;;;;;;;;17.50;17.25;;;;;18.44;53.37;101996.53;5091070;27;45273;-78
2022/05/06 10:25:57;;;;;;;;;17.75;17.00;;;;;18.52;52.98;102002.00;5090312;27;45071;-78
2022/05/06 10:34:12;;;;;;;;;14.50;14.50;;;;;18.55;52.91;101970.13;5089572;28;45077;-78
2022/05/06 10:36:47;;;;;;;;;15.00;14.75;;;;;18.78;52.80;101999.94;5090067;27;45036;-82
2022/05/06 10:39:31;;;;;;;;;14.00;13.50;;;;;18.88;52.34;102001.03;5090513;27;45686;-77
2022/05/06 10:42:33;;;;;;;;;16.50;15.50;;;;;18.95;52.24;101998.50;5092773;27;45134;-80
2022/05/06 10:44:58;;;;;;;;;15.00;12.50;;;;;18.91;51.77;101972.69;5087628;27;45360;-77
2022/05/06 10:47:42;;;;;;;;;14.50;14.50;;;;;19.11;52.07;101989.06;5090646;27;45259;-80
2022/05/06 10:50:15;;;;;;;;;17.75;16.50;;;;;19.24;51.22;101990.19;5090113;27;45448;-81
2022/05/06 10:52:41;;;;;;;;;14.00;14.00;;;;;19.43;51.11;101979.00;5089584;28;45179;-78
2022/05/06 10:55:10;;;;;;;;;14.00;13.25;;;;;19.64;50.93;101982.97;5092255;27;45007;-79
2022/05/06 10:57:59;;;;;;;;;13.50;12.75;;;;;19.63;50.09;101950.06;5090913;27;45142;-81
2022/05/06 11:00:27;;;;;;;;;14.25;13.50;;;;;19.84;49.96;101978.84;5090784;27;45829;-80
2022/05/06 11:02:53;;;;;;;;;14.00;14.00;;;;;19.75;49.30;101952.00;5090715;27;45265;-80
2022/05/06 11:05:20;;;;;;;;;17.50;17.50;;;;;19.78;49.26;101968.09;5090815;27;45024;-80
2022/05/06 11:07:48;;;;;;;;;15.25;14.25;;;;;19.70;49.43;101967.03;5092374;27;45183;-79
2022/05/06 11:10:19;;;;;;;;;16.25;16.00;;;;;19.60;49.18;101958.00;5091534;27;45612;-78
2022/05/06 11:12:53;;;;;;;;;12.00;10.00;;;;;19.53;49.45;101943.63;5091470;27;45299;-80
2022/05/06 11:15:25;;;;;;;;;15.75;15.50;;;;;19.70;49.22;101951.03;5091615;27;44704;-77
2022/05/06 11:17:54;;;;;;;;;15.00;14.00;;;;;19.69;49.06;101950.16;5090553;27;45288;-78
2022/05/06 11:20:28;;;;;;;;;13.50;13.25;;;;;19.70;48.48;101951.03;5090652;28;45794;-78
2022/05/06 11:22:55;;;;;;;;;14.50;12.75;;;;;19.82;49.07;101951.25;5091443;27;45315;-78
2022/05/06 11:25:24;;;;;;;;;15.25;15.00;;;;;19.93;48.52;101959.44;5091503;27;45386;-82
2022/05/06 11:27:54;;;;;;;;;14.75;14.25;;;;;20.07;48.25;101963.22;5091547;28;45086;-79
2022/05/06 11:30:22;;;;;;;;;12.75;12.00;;;;;20.29;47.83;101951.94;5095274;28;46055;-82
2022/05/06 11:32:50;;;;;;;;;17.75;14.75;;;;;20.38;47.64;101931.59;5095175;27;45483;-81
2022/05/06 11:35:20;;;;;;;;;14.25;13.75;;;;;20.50;47.17;101938.03;5094138;27;45157;-81
2022/05/06 11:37:46;;;;;;;;;13.75;13.50;;;;;20.45;46.52;101931.72;5094309;27;45093;-81
2022/05/06 11:40:35;;;;;;;;;14.50;13.50;;;;;20.43;46.87;101925.44;5094092;28;46447;-79
2022/05/06 11:43:21;;;;;;;;;13.25;13.25;;;;;20.58;47.60;101939.00;5094237;28;45091;-83
2022/05/06 11:48:32;;;;;;;;;13.25;12.25;;;;;20.71;46.64;101944.53;5095463;28;45169;-84
2022/05/06 11:51:03;;;;;;;;;15.25;14.00;;;;;20.73;46.23;101940.09;5095089;27;45452;-77